createdAt,value
2022-09-07T00:00:12.000Z,91.38
2022-09-07T00:01:12.000Z,91.49
2022-09-07T00:02:12.000Z,91.49
2022-09-07T00:03:12.000Z,91.63
2022-09-07T00:04:12.000Z,91.63
2022-09-07T00:05:11.000Z,91.53
2022-09-07T00:06:11.000Z,91.63
2022-09-07T00:07:11.000Z,91.63
2022-09-07T00:08:11.000Z,91.73
2022-09-07T00:09:11.000Z,91.73
2022-09-07T00:10:11.000Z,91.93
2022-09-07T00:11:11.000Z,92.03
2022-09-07T00:12:11.000Z,92.13
2022-09-07T00:13:11.000Z,92.13
2022-09-07T00:14:11.000Z,92.13
2022-09-07T00:15:11.000Z,92.08
2022-09-07T00:16:11.000Z,92.08
2022-09-07T00:17:11.000Z,92.08
2022-09-07T00:18:11.000Z,92.08
2022-09-07T00:19:11.000Z,91.97
2022-09-07T00:20:11.000Z,92.08
2022-09-07T00:21:11.000Z,92.38
2022-09-07T00:22:11.000Z,92.48
2022-09-07T00:23:11.000Z,92.58
2022-09-07T00:24:11.000Z,92.79
2022-09-07T00:25:11.000Z,92.79
2022-09-07T00:26:11.000Z,92.88
2022-09-07T00:27:11.000Z,92.99
2022-09-07T00:28:11.000Z,93.08
2022-09-07T00:29:11.000Z,93.29
2022-09-07T00:30:11.000Z,93.19
2022-09-07T00:31:11.000Z,93.19
2022-09-07T00:32:11.000Z,93.49
2022-09-07T00:33:11.000Z,93.49
2022-09-07T00:34:11.000Z,93.79
2022-09-07T00:35:11.000Z,93.79
2022-09-07T00:36:11.000Z,93.79
2022-09-07T00:37:11.000Z,93.79
2022-09-07T00:38:11.000Z,93.90
2022-09-07T00:39:11.000Z,94.00
2022-09-07T00:40:11.000Z,94.00
2022-09-07T00:41:11.000Z,93.90
2022-09-07T00:42:11.000Z,94.00
2022-09-07T00:43:11.000Z,94.00
2022-09-07T00:44:11.000Z,93.90
2022-09-07T00:45:11.000Z,94.00
2022-09-07T00:46:11.000Z,94.10
2022-09-07T00:47:11.000Z,94.00
2022-09-07T00:48:11.000Z,93.79
2022-09-07T00:49:11.000Z,93.49
2022-09-07T00:50:11.000Z,93.29
2022-09-07T00:57:28.000Z,92.99
2022-09-07T00:57:28.000Z,93.08
2022-09-07T00:58:28.000Z,93.19
2022-09-07T00:59:28.000Z,93.29
2022-09-07T01:00:28.000Z,93.49
2022-09-07T01:01:28.000Z,93.49
2022-09-07T01:02:28.000Z,93.59
2022-09-07T01:03:28.000Z,93.59
2022-09-07T01:04:28.000Z,93.70
2022-09-07T01:05:28.000Z,94.00
2022-09-07T01:06:28.000Z,94.00
2022-09-07T01:07:28.000Z,94.10
2022-09-07T01:08:28.000Z,94.10
2022-09-07T01:09:28.000Z,94.00
2022-09-07T01:10:28.000Z,94.00
2022-09-07T01:36:19.000Z,93.70
2022-09-07T01:36:19.000Z,93.49
2022-09-07T01:37:19.000Z,93.49
2022-09-07T01:38:19.000Z,93.49
2022-09-07T01:39:19.000Z,93.49
2022-09-07T01:40:19.000Z,93.49
2022-09-07T01:41:19.000Z,93.29
2022-09-07T01:42:19.000Z,93.29
2022-09-07T01:43:19.000Z,93.03
2022-09-07T01:44:19.000Z,92.93
2022-09-07T01:45:19.000Z,92.93
2022-09-07T01:46:19.000Z,93.03
2022-09-07T01:47:19.000Z,93.03
2022-09-07T01:48:19.000Z,93.03
2022-09-07T01:49:18.000Z,93.13
2022-09-07T01:50:18.000Z,93.13
2022-09-07T01:51:18.000Z,93.23
2022-09-07T01:52:18.000Z,93.23
2022-09-07T01:53:18.000Z,93.43
2022-09-07T01:54:18.000Z,93.54
2022-09-07T01:55:18.000Z,93.63
2022-09-07T01:56:18.000Z,93.84
2022-09-07T01:57:18.000Z,93.84
2022-09-07T01:58:18.000Z,93.94
2022-09-07T01:59:18.000Z,93.94
2022-09-07T02:00:18.000Z,93.94
2022-09-07T02:01:18.000Z,93.94
2022-09-07T02:02:18.000Z,93.94
2022-09-07T02:03:18.000Z,93.94
2022-09-07T02:04:18.000Z,93.94
2022-09-07T02:16:53.000Z,93.63
2022-09-07T02:16:53.000Z,93.63
2022-09-07T02:17:53.000Z,93.63
2022-09-07T02:18:53.000Z,93.63
2022-09-07T02:19:53.000Z,93.54
2022-09-07T02:20:53.000Z,93.74
2022-09-07T02:21:53.000Z,93.74
2022-09-07T02:22:53.000Z,93.74
2022-09-07T02:23:53.000Z,93.84
2022-09-07T02:24:53.000Z,93.99
2022-09-07T02:25:53.000Z,94.09
2022-09-07T02:26:53.000Z,94.29
2022-09-07T02:27:53.000Z,94.35
2022-09-07T02:28:53.000Z,94.55
2022-09-07T02:29:53.000Z,94.65
2022-09-07T02:30:53.000Z,94.75
2022-09-07T02:31:53.000Z,94.85
2022-09-07T02:32:53.000Z,95.06
2022-09-07T02:33:53.000Z,95.06
2022-09-07T02:34:53.000Z,95.06
2022-09-07T02:35:53.000Z,95.06
2022-09-07T02:36:53.000Z,95.06
2022-09-07T02:37:53.000Z,95.15
2022-09-07T02:38:53.000Z,95.15
2022-09-07T02:39:53.000Z,95.15
2022-09-07T02:40:53.000Z,95.06
2022-09-07T02:41:53.000Z,95.06
2022-09-07T02:42:53.000Z,95.15
2022-09-07T02:43:53.000Z,95.26
2022-09-07T02:44:53.000Z,95.26
2022-09-07T03:03:44.000Z,95.01
2022-09-07T03:03:44.000Z,95.01
2022-09-07T03:04:44.000Z,95.01
2022-09-07T03:05:44.000Z,95.01
2022-09-07T03:06:44.000Z,95.01
2022-09-07T03:07:44.000Z,95.01
2022-09-07T03:08:44.000Z,95.11
2022-09-07T03:09:44.000Z,95.11
2022-09-07T03:10:44.000Z,95.11
2022-09-07T03:11:44.000Z,95.11
2022-09-07T03:12:44.000Z,95.11
2022-09-07T03:13:44.000Z,95.21
2022-09-07T03:14:44.000Z,95.21
2022-09-07T03:15:44.000Z,95.21
2022-09-07T03:16:44.000Z,95.21
2022-09-07T03:17:44.000Z,95.31
2022-09-07T03:18:44.000Z,95.42
2022-09-07T03:19:44.000Z,95.42
2022-09-07T03:20:44.000Z,95.42
2022-09-07T03:28:02.000Z,95.62
2022-09-07T03:28:02.000Z,95.62
2022-09-07T03:29:02.000Z,95.62
2022-09-07T03:30:02.000Z,95.62
2022-09-07T03:31:02.000Z,95.72
2022-09-07T03:32:02.000Z,95.62
2022-09-07T03:33:02.000Z,95.62
2022-09-07T03:34:02.000Z,95.62
2022-09-07T03:35:02.000Z,95.51
2022-09-07T03:36:02.000Z,95.51
2022-09-07T03:37:02.000Z,95.51
2022-09-07T03:38:02.000Z,95.62
2022-09-07T03:39:02.000Z,95.62
2022-09-07T03:40:01.000Z,95.51
2022-09-07T03:41:01.000Z,95.51
2022-09-07T03:42:01.000Z,95.42
2022-09-07T03:43:01.000Z,95.51
2022-09-07T03:44:01.000Z,95.42
2022-09-07T03:45:01.000Z,95.42
2022-09-07T03:46:01.000Z,95.42
2022-09-07T03:47:01.000Z,95.42
2022-09-07T03:48:01.000Z,95.42
2022-09-07T03:49:01.000Z,95.42
2022-09-07T03:50:01.000Z,95.56
2022-09-07T03:51:01.000Z,95.51
2022-09-07T03:52:01.000Z,95.62
2022-09-07T03:53:01.000Z,95.66
2022-09-07T03:54:01.000Z,95.86
2022-09-07T03:55:01.000Z,95.86
2022-09-07T03:56:01.000Z,96.12
2022-09-07T03:57:01.000Z,96.27
2022-09-07T03:58:01.000Z,96.22
2022-09-07T03:59:01.000Z,96.42
2022-09-07T04:00:01.000Z,96.42
2022-09-07T04:01:01.000Z,96.53
2022-09-07T04:02:01.000Z,96.63
2022-09-07T04:03:01.000Z,96.63
2022-09-07T04:04:01.000Z,96.73
2022-09-07T04:05:01.000Z,96.73
2022-09-07T04:06:01.000Z,96.73
2022-09-07T04:07:01.000Z,96.73
2022-09-07T04:08:01.000Z,96.73
2022-09-07T04:09:01.000Z,96.73
2022-09-07T04:10:01.000Z,96.73
2022-09-07T04:11:01.000Z,96.73
2022-09-07T04:12:01.000Z,96.67
2022-09-07T04:13:01.000Z,96.67
2022-09-07T04:14:01.000Z,96.67
2022-09-07T04:15:01.000Z,96.67
2022-09-07T04:16:01.000Z,96.67
2022-09-07T04:17:01.000Z,96.67
2022-09-07T04:18:01.000Z,96.57
2022-09-07T04:19:01.000Z,96.57
2022-09-07T04:20:01.000Z,96.67
2022-09-07T04:21:01.000Z,96.67
2022-09-07T04:22:01.000Z,96.67
2022-09-07T04:23:01.000Z,96.67
2022-09-07T04:24:01.000Z,96.67
2022-09-07T04:25:01.000Z,96.67
2022-09-07T04:26:01.000Z,96.67
2022-09-07T04:27:01.000Z,96.67
2022-09-07T04:27:01.000Z,96.67
2022-09-07T04:28:01.000Z,96.67
2022-09-07T04:28:01.000Z,96.67
2022-09-07T04:29:01.000Z,96.67
2022-09-07T04:29:01.000Z,96.67
2022-09-07T04:30:01.000Z,96.67
2022-09-07T04:30:01.000Z,96.67
2022-09-07T04:31:01.000Z,96.78
2022-09-07T04:31:01.000Z,96.78
2022-09-07T04:32:01.000Z,96.78
2022-09-07T04:33:01.000Z,96.78
2022-09-07T04:34:01.000Z,96.88
2022-09-07T04:35:01.000Z,96.98
2022-09-07T04:36:01.000Z,96.98
2022-09-07T04:37:01.000Z,96.93
2022-09-07T04:38:01.000Z,96.93
2022-09-07T04:39:01.000Z,96.98
2022-09-07T04:40:01.000Z,96.93
2022-09-07T04:41:01.000Z,96.93
2022-09-07T04:42:01.000Z,96.93
2022-09-07T04:43:01.000Z,96.93
2022-09-07T04:44:01.000Z,97.03
2022-09-07T04:45:01.000Z,96.93
2022-09-07T04:46:01.000Z,96.93
2022-09-07T04:47:01.000Z,96.93
2022-09-07T04:48:01.000Z,96.93
2022-09-07T04:49:01.000Z,97.03
2022-09-07T04:50:01.000Z,96.98
2022-09-07T04:51:01.000Z,96.98
2022-09-07T04:52:01.000Z,96.98
2022-09-07T04:53:01.000Z,97.09
2022-09-07T04:54:01.000Z,97.09
2022-09-07T04:55:01.000Z,97.09
2022-09-07T04:56:01.000Z,96.98
2022-09-07T04:57:01.000Z,96.89
2022-09-07T04:58:01.000Z,96.78
2022-09-07T04:59:01.000Z,96.69
2022-09-07T05:00:01.000Z,96.58
2022-09-07T05:01:01.000Z,96.48
2022-09-07T05:02:01.000Z,96.48
2022-09-07T05:03:01.000Z,96.38
2022-09-07T05:04:01.000Z,96.38
2022-09-07T05:05:01.000Z,96.38
2022-09-07T05:06:01.000Z,96.28
2022-09-07T05:10:32.000Z,96.13
2022-09-07T05:10:32.000Z,96.13
2022-09-07T05:11:32.000Z,96.13
2022-09-07T05:12:32.000Z,96.13
2022-09-07T05:13:32.000Z,96.13
2022-09-07T05:27:07.000Z,95.89
2022-09-07T05:27:07.000Z,95.89
2022-09-07T05:28:07.000Z,95.89
2022-09-07T05:29:07.000Z,95.74
2022-09-07T05:30:07.000Z,95.74
2022-09-07T05:31:07.000Z,95.74
2022-09-07T05:32:07.000Z,95.74
2022-09-07T05:33:07.000Z,95.74
2022-09-07T05:34:07.000Z,95.74
2022-09-07T05:35:07.000Z,95.74
2022-09-07T05:36:07.000Z,95.70
2022-09-07T05:37:07.000Z,95.59
2022-09-07T05:38:07.000Z,95.39
2022-09-07T05:39:07.000Z,95.29
2022-09-07T05:40:07.000Z,95.29
2022-09-07T05:41:07.000Z,95.19
2022-09-07T05:42:07.000Z,94.94
2022-09-07T05:43:07.000Z,94.54
2022-09-07T05:44:07.000Z,94.34
2022-09-07T05:45:07.000Z,94.24
2022-09-07T05:46:07.000Z,94.19
2022-09-07T05:47:07.000Z,94.29
2022-09-07T05:48:07.000Z,94.09
2022-09-07T05:49:07.000Z,93.89
2022-09-07T05:50:07.000Z,93.54
2022-09-07T05:51:07.000Z,92.83
2022-09-07T05:52:07.000Z,92.43
2022-09-07T05:53:07.000Z,92.23
2022-09-07T05:54:07.000Z,92.09
2022-09-07T05:55:07.000Z,92.19
2022-09-07T05:56:07.000Z,92.09
2022-09-07T05:57:07.000Z,91.49
2022-09-07T05:58:07.000Z,91.44
2022-09-07T05:59:07.000Z,90.44
2022-09-07T06:00:07.000Z,90.33
2022-09-07T06:01:07.000Z,90.03
2022-09-07T06:02:07.000Z,90.09
2022-09-07T06:03:07.000Z,90.19
2022-09-07T06:04:07.000Z,89.79
2022-09-07T06:05:07.000Z,89.44
2022-09-07T06:06:07.000Z,88.64
2022-09-07T06:07:07.000Z,88.03
2022-09-07T06:08:07.000Z,87.93
2022-09-07T06:09:07.000Z,87.13
2022-09-07T06:10:07.000Z,86.72
2022-09-07T06:11:07.000Z,86.63
2022-09-07T06:12:07.000Z,86.88
2022-09-07T06:13:07.000Z,87.59
2022-09-07T06:14:07.000Z,85.48
2022-09-07T06:15:07.000Z,85.38
2022-09-07T06:16:07.000Z,84.94
2022-09-07T06:17:07.000Z,84.83
2022-09-07T06:18:07.000Z,84.23
2022-09-07T06:19:07.000Z,83.93
2022-09-07T06:20:07.000Z,84.19
2022-09-07T06:21:07.000Z,82.89
2022-09-07T06:22:07.000Z,82.28
2022-09-07T06:23:07.000Z,82.28
2022-09-07T06:24:07.000Z,82.98
2022-09-07T06:25:06.000Z,82.75
2022-09-07T06:26:06.000Z,82.34
2022-09-07T06:27:06.000Z,81.74
2022-09-07T06:28:06.000Z,81.24
2022-09-07T06:29:06.000Z,81.74
2022-09-07T06:30:06.000Z,82.40
2022-09-07T06:31:06.000Z,81.80
2022-09-07T06:32:06.000Z,81.90
2022-09-07T06:33:06.000Z,80.26
2022-09-07T06:34:06.000Z,79.86
2022-09-07T06:35:06.000Z,80.46
2022-09-07T06:47:22.000Z,75.76
2022-09-07T06:47:22.000Z,77.33
2022-09-07T06:48:22.000Z,76.13
2022-09-07T06:49:22.000Z,75.43
2022-09-07T06:50:22.000Z,74.83
2022-09-07T06:51:22.000Z,74.83
2022-09-07T06:52:22.000Z,74.89
2022-09-07T06:53:22.000Z,73.89
2022-09-07T06:54:22.000Z,74.26
2022-09-07T06:55:22.000Z,73.36
2022-09-07T06:56:22.000Z,72.86
2022-09-07T06:57:22.000Z,73.32
2022-09-07T06:58:22.000Z,72.13
2022-09-07T06:59:22.000Z,72.92
2022-09-07T07:00:22.000Z,71.59
2022-09-07T07:01:22.000Z,69.99
2022-09-07T07:02:22.000Z,71.66
2022-09-07T07:03:22.000Z,69.53
2022-09-07T07:04:22.000Z,69.92
2022-09-07T07:05:22.000Z,68.19
2022-09-07T07:06:22.000Z,69.16
2022-09-07T07:07:22.000Z,68.37
2022-09-07T07:08:22.000Z,67.93
2022-09-07T07:09:22.000Z,65.91
2022-09-07T07:10:22.000Z,65.31
2022-09-07T07:11:22.000Z,65.61
2022-09-07T07:12:22.000Z,65.81
2022-09-07T07:13:22.000Z,65.11
2022-09-07T07:14:22.000Z,64.58
2022-09-07T07:15:22.000Z,65.18
2022-09-07T07:16:22.000Z,66.38
2022-09-07T07:17:22.000Z,65.68
2022-09-07T07:18:22.000Z,65.08
2022-09-07T07:19:22.000Z,65.71
2022-09-07T07:20:22.000Z,65.71
2022-09-07T07:32:56.000Z,65.81
2022-09-07T07:32:56.000Z,65.18
2022-09-07T07:33:56.000Z,66.80
2022-09-07T07:34:56.000Z,66.50
2022-09-07T07:35:56.000Z,66.27
2022-09-07T07:36:56.000Z,67.07
2022-09-07T07:37:56.000Z,65.58
2022-09-07T07:38:56.000Z,65.58
2022-09-07T07:39:56.000Z,64.69
2022-09-07T07:40:56.000Z,64.98
2022-09-07T07:41:56.000Z,66.27
2022-09-07T07:42:56.000Z,65.88
2022-09-07T07:43:56.000Z,66.47
2022-09-07T07:44:56.000Z,65.64
2022-09-07T07:45:56.000Z,64.88
2022-09-07T07:46:56.000Z,65.78
2022-09-07T07:47:56.000Z,65.78
2022-09-07T07:48:56.000Z,65.58
2022-09-07T07:49:56.000Z,65.35
2022-09-07T07:50:56.000Z,64.09
2022-09-07T07:51:56.000Z,65.18
2022-09-07T07:52:56.000Z,65.68
2022-09-07T07:53:56.000Z,65.48
2022-09-07T07:54:56.000Z,65.78
2022-09-07T07:55:56.000Z,65.05
2022-09-07T07:56:56.000Z,64.09
2022-09-07T07:57:56.000Z,64.95
2022-09-07T07:58:56.000Z,64.78
2022-09-07T07:59:56.000Z,64.69
2022-09-07T08:00:56.000Z,64.39
2022-09-07T08:01:56.000Z,64.88
2022-09-07T08:01:56.000Z,64.88
2022-09-07T08:02:56.000Z,65.08
2022-09-07T08:02:56.000Z,65.08
2022-09-07T08:03:56.000Z,65.88
2022-09-07T08:03:56.000Z,65.88
2022-09-07T08:04:55.000Z,65.98
2022-09-07T08:04:55.000Z,65.98
2022-09-07T08:05:55.000Z,65.88
2022-09-07T08:05:55.000Z,65.88
2022-09-07T08:06:55.000Z,65.61
2022-09-07T08:07:55.000Z,66.50
2022-09-07T08:08:55.000Z,65.71
2022-09-07T08:09:55.000Z,66.20
2022-09-07T08:10:55.000Z,65.34
2022-09-07T08:11:55.000Z,66.24
2022-09-07T08:12:55.000Z,66.14
2022-09-07T08:13:55.000Z,66.24
2022-09-07T08:14:55.000Z,67.17
2022-09-07T08:15:55.000Z,67.86
2022-09-07T08:16:55.000Z,67.77
2022-09-07T08:17:55.000Z,67.66
2022-09-07T08:18:55.000Z,67.36
2022-09-07T08:19:55.000Z,67.77
2022-09-07T08:20:55.000Z,66.57
2022-09-07T08:21:55.000Z,66.87
2022-09-07T08:22:55.000Z,66.67
2022-09-07T08:23:55.000Z,66.17
2022-09-07T08:24:55.000Z,65.54
2022-09-07T08:25:55.000Z,66.53
2022-09-07T08:26:55.000Z,66.53
2022-09-07T08:27:55.000Z,66.17
2022-09-07T08:28:55.000Z,65.84
2022-09-07T08:29:55.000Z,65.47
2022-09-07T08:30:55.000Z,66.57
2022-09-07T08:31:55.000Z,67.47
2022-09-07T08:32:55.000Z,67.07
2022-09-07T08:33:55.000Z,66.83
2022-09-07T08:34:55.000Z,66.83
2022-09-07T08:35:55.000Z,66.34
2022-09-07T08:36:55.000Z,66.44
2022-09-07T08:37:55.000Z,66.34
2022-09-07T08:38:55.000Z,66.64
2022-09-07T08:39:55.000Z,66.01
2022-09-07T08:40:55.000Z,65.41
2022-09-07T08:41:55.000Z,64.91
2022-09-07T08:42:55.000Z,66.11
2022-09-07T08:43:55.000Z,65.31
2022-09-07T08:44:55.000Z,65.21
2022-09-07T08:45:55.000Z,65.21
2022-09-07T08:46:55.000Z,65.71
2022-09-07T08:47:55.000Z,64.81
2022-09-07T08:48:55.000Z,65.91
2022-09-07T08:49:55.000Z,65.98
2022-09-07T08:50:55.000Z,65.28
2022-09-07T09:03:12.000Z,62.50
2022-09-07T09:03:12.000Z,63.10
2022-09-07T09:04:12.000Z,63.70
2022-09-07T09:05:12.000Z,63.89
2022-09-07T09:06:12.000Z,63.67
2022-09-07T09:07:12.000Z,63.57
2022-09-07T09:08:12.000Z,63.76
2022-09-07T09:09:12.000Z,63.57
2022-09-07T09:10:12.000Z,64.03
2022-09-07T09:11:12.000Z,63.64
2022-09-07T09:12:12.000Z,63.04
2022-09-07T09:13:12.000Z,62.64
2022-09-07T09:14:12.000Z,61.72
2022-09-07T09:15:12.000Z,61.82
2022-09-07T09:16:12.000Z,62.38
2022-09-07T09:17:12.000Z,62.15
2022-09-07T09:18:12.000Z,60.02
2022-09-07T09:19:12.000Z,59.89
2022-09-07T09:20:12.000Z,57.18
2022-09-07T09:21:12.000Z,57.06
2022-09-07T09:22:12.000Z,57.30
2022-09-07T09:23:12.000Z,55.89
2022-09-07T09:24:12.000Z,55.96
2022-09-07T09:25:12.000Z,54.88
2022-09-07T09:26:12.000Z,54.16
2022-09-07T09:27:12.000Z,53.25
2022-09-07T09:28:12.000Z,53.12
2022-09-07T09:29:12.000Z,52.70
2022-09-07T09:30:12.000Z,50.83
2022-09-07T09:31:12.000Z,50.34
2022-09-07T09:32:12.000Z,52.50
2022-09-07T09:33:12.000Z,51.45
2022-09-07T09:34:12.000Z,53.12
2022-09-07T09:35:12.000Z,52.14
2022-09-07T09:36:12.000Z,53.42
2022-09-07T09:37:12.000Z,53.15
2022-09-07T09:38:12.000Z,52.46
2022-09-07T09:39:12.000Z,53.25
2022-09-07T09:40:12.000Z,53.67
2022-09-07T09:41:12.000Z,53.27
2022-09-07T09:42:12.000Z,54.48
2022-09-07T09:43:12.000Z,53.69
2022-09-07T09:44:12.000Z,53.79
2022-09-07T09:45:12.000Z,53.10
2022-09-07T09:46:12.000Z,53.96
2022-09-07T09:48:29.000Z,53.59
2022-09-07T09:48:29.000Z,53.99
2022-09-07T09:48:29.000Z,53.59
2022-09-07T09:48:29.000Z,53.99
2022-09-07T09:49:29.000Z,53.79
2022-09-07T09:49:29.000Z,53.79
2022-09-07T09:50:29.000Z,54.88
2022-09-07T09:50:29.000Z,54.88
2022-09-07T09:51:29.000Z,54.78
2022-09-07T09:51:29.000Z,54.78
2022-09-07T09:52:29.000Z,53.89
2022-09-07T09:53:29.000Z,53.69
2022-09-07T09:54:29.000Z,54.26
2022-09-07T09:55:29.000Z,53.27
2022-09-07T09:56:29.000Z,53.86
2022-09-07T10:10:03.000Z,50.61
2022-09-07T10:10:03.000Z,49.99
2022-09-07T10:11:03.000Z,49.18
2022-09-07T10:12:03.000Z,49.48
2022-09-07T10:13:03.000Z,50.34
2022-09-07T10:14:03.000Z,49.92
2022-09-07T10:15:03.000Z,50.19
2022-09-07T10:16:03.000Z,49.48
2022-09-07T10:17:02.000Z,48.57
2022-09-07T10:18:02.000Z,47.67
2022-09-07T10:19:02.000Z,48.13
2022-09-07T10:20:02.000Z,46.66
2022-09-07T10:21:02.000Z,45.37
2022-09-07T10:22:02.000Z,46.72
2022-09-07T10:23:02.000Z,45.62
2022-09-07T10:24:02.000Z,45.03
2022-09-07T10:25:02.000Z,45.32
2022-09-07T10:26:02.000Z,44.64
2022-09-07T10:27:02.000Z,43.84
2022-09-07T10:28:02.000Z,44.73
2022-09-07T10:29:02.000Z,44.42
2022-09-07T10:30:02.000Z,44.23
2022-09-07T10:31:02.000Z,44.03
2022-09-07T10:32:02.000Z,44.20
2022-09-07T10:33:02.000Z,43.81
2022-09-07T10:34:02.000Z,44.20
2022-09-07T10:35:02.000Z,43.91
2022-09-07T10:36:02.000Z,43.91
2022-09-07T10:37:02.000Z,44.40
2022-09-07T10:38:02.000Z,43.03
2022-09-07T10:38:02.000Z,43.03
2022-09-07T10:39:02.000Z,43.52
2022-09-07T10:39:02.000Z,43.52
2022-09-07T10:40:02.000Z,43.24
2022-09-07T10:40:02.000Z,43.24
2022-09-07T10:41:02.000Z,44.23
2022-09-07T10:41:02.000Z,44.23
2022-09-07T10:42:02.000Z,44.23
2022-09-07T10:42:02.000Z,44.23
2022-09-07T10:43:02.000Z,44.13
2022-09-07T10:44:02.000Z,43.85
2022-09-07T10:45:02.000Z,43.63
2022-09-07T10:46:02.000Z,43.37
2022-09-07T10:47:02.000Z,43.98
2022-09-07T10:48:02.000Z,45.25
2022-09-07T10:48:02.000Z,45.25
2022-09-07T10:49:02.000Z,45.23
2022-09-07T10:49:02.000Z,45.23
2022-09-07T10:50:02.000Z,44.81
2022-09-07T10:50:02.000Z,44.81
2022-09-07T10:51:02.000Z,44.71
2022-09-07T10:51:02.000Z,44.71
2022-09-07T10:52:02.000Z,44.59
2022-09-07T10:52:02.000Z,44.59
2022-09-07T10:53:02.000Z,43.49
2022-09-07T10:54:02.000Z,42.42
2022-09-07T10:55:02.000Z,42.79
2022-09-07T10:56:02.000Z,43.49
2022-09-07T10:57:02.000Z,42.60
2022-09-07T10:58:02.000Z,41.35
2022-09-07T10:59:02.000Z,42.40
2022-09-07T11:00:02.000Z,41.42
2022-09-07T11:01:02.000Z,40.92
2022-09-07T11:02:02.000Z,40.92
2022-09-07T11:03:02.000Z,41.80
2022-09-07T11:04:02.000Z,40.43
2022-09-07T11:05:02.000Z,40.60
2022-09-07T11:06:02.000Z,40.80
2022-09-07T11:07:02.000Z,41.42
2022-09-07T11:08:02.000Z,42.50
2022-09-07T11:09:02.000Z,41.62
2022-09-07T11:10:02.000Z,41.72
2022-09-07T11:11:02.000Z,41.35
2022-09-07T11:12:02.000Z,42.52
2022-09-07T11:13:02.000Z,42.52
2022-09-07T11:14:02.000Z,41.74
2022-09-07T11:15:02.000Z,42.30
2022-09-07T11:16:02.000Z,41.72
2022-09-07T11:17:02.000Z,42.09
2022-09-07T11:18:02.000Z,42.87
2022-09-07T11:19:02.000Z,41.97
2022-09-07T11:20:02.000Z,41.66
2022-09-07T11:21:02.000Z,40.58
2022-09-07T11:22:02.000Z,40.95
2022-09-07T11:34:34.000Z,39.75
2022-09-07T11:34:34.000Z,38.96
2022-09-07T11:35:34.000Z,38.67
2022-09-07T11:36:34.000Z,38.87
2022-09-07T11:37:34.000Z,39.36
2022-09-07T11:38:34.000Z,39.18
2022-09-07T11:39:34.000Z,40.47
2022-09-07T11:40:34.000Z,40.76
2022-09-07T11:41:34.000Z,40.16
2022-09-07T11:42:34.000Z,40.42
2022-09-07T12:06:41.000Z,37.16
2022-09-07T12:06:41.000Z,36.11
2022-09-07T12:07:41.000Z,35.78
2022-09-07T12:08:41.000Z,35.88
2022-09-07T12:09:41.000Z,35.77
2022-09-07T12:10:41.000Z,34.89
2022-09-07T12:11:41.000Z,35.78
2022-09-07T12:12:41.000Z,35.98
2022-09-07T12:13:41.000Z,34.81
2022-09-07T12:14:41.000Z,36.27
2022-09-07T12:15:41.000Z,35.09
2022-09-07T12:16:41.000Z,35.28
2022-09-07T12:17:40.000Z,34.99
2022-09-07T12:18:40.000Z,35.38
2022-09-07T12:43:46.000Z,35.32
2022-09-07T12:43:46.000Z,35.51
2022-09-07T12:44:46.000Z,35.40
2022-09-07T12:45:46.000Z,35.21
2022-09-07T12:46:46.000Z,34.53
2022-09-07T12:47:46.000Z,35.21
2022-09-07T12:48:46.000Z,34.81
2022-09-07T12:49:46.000Z,35.13
2022-09-07T12:50:46.000Z,34.44
2022-09-07T12:51:46.000Z,34.83
2022-09-07T12:52:46.000Z,36.50
2022-09-07T12:53:46.000Z,36.11
2022-09-07T12:54:46.000Z,35.82
2022-09-07T12:55:46.000Z,36.30
2022-09-07T12:56:46.000Z,36.04
2022-09-07T12:57:46.000Z,36.42
2022-09-07T12:58:46.000Z,36.42
2022-09-07T12:59:46.000Z,36.61
2022-09-07T13:00:46.000Z,35.84
2022-09-07T13:01:46.000Z,35.84
2022-09-07T13:02:46.000Z,35.94
2022-09-07T13:03:46.000Z,36.21
2022-09-07T13:04:46.000Z,35.82
2022-09-07T13:27:52.000Z,42.94
2022-09-07T13:27:52.000Z,42.84
2022-09-07T13:28:52.000Z,43.74
2022-09-07T13:29:52.000Z,44.43
2022-09-07T13:30:52.000Z,44.45
2022-09-07T13:31:52.000Z,43.76
2022-09-07T13:32:52.000Z,44.55
2022-09-07T13:33:52.000Z,44.06
2022-09-07T13:34:52.000Z,44.55
2022-09-07T13:35:52.000Z,44.65
2022-09-07T13:36:52.000Z,45.43
2022-09-07T13:37:52.000Z,44.73
2022-09-07T13:38:51.000Z,42.55
2022-09-07T13:39:51.000Z,43.52
2022-09-07T13:40:51.000Z,44.19
2022-09-07T13:41:51.000Z,43.51
2022-09-07T13:42:51.000Z,42.62
2022-09-07T13:43:51.000Z,42.62
2022-09-07T13:44:51.000Z,42.03
2022-09-07T13:45:51.000Z,42.43
2022-09-07T13:46:51.000Z,43.21
2022-09-07T13:47:51.000Z,43.12
2022-09-07T13:48:51.000Z,42.45
2022-09-07T13:49:51.000Z,43.43
2022-09-07T13:50:51.000Z,42.55
2022-09-07T13:51:51.000Z,42.35
2022-09-07T13:52:51.000Z,42.74
2022-09-07T13:53:51.000Z,42.27
2022-09-07T13:54:51.000Z,43.26
2022-09-07T13:55:51.000Z,44.33
2022-09-07T14:10:25.000Z,44.35
2022-09-07T14:10:25.000Z,44.45
2022-09-07T14:11:25.000Z,43.86
2022-09-07T14:12:25.000Z,43.57
2022-09-07T14:13:25.000Z,44.06
2022-09-07T14:14:25.000Z,43.76
2022-09-07T14:15:25.000Z,43.47
2022-09-07T14:16:25.000Z,42.98
2022-09-07T14:17:24.000Z,42.29
2022-09-07T14:18:24.000Z,42.79
2022-09-07T14:19:24.000Z,43.47
2022-09-07T14:20:24.000Z,42.79
2022-09-07T14:21:24.000Z,44.37
2022-09-07T14:22:24.000Z,43.47
2022-09-07T14:23:24.000Z,42.71
2022-09-07T14:24:24.000Z,43.39
2022-09-07T14:25:24.000Z,43.59
2022-09-07T14:26:24.000Z,43.00
2022-09-07T14:27:24.000Z,43.10
2022-09-07T14:28:24.000Z,44.18
2022-09-07T14:29:24.000Z,43.98
2022-09-07T14:30:24.000Z,43.69
2022-09-07T14:31:24.000Z,43.88
2022-09-07T14:32:24.000Z,43.49
2022-09-07T14:33:24.000Z,44.47
2022-09-07T14:34:24.000Z,43.88
2022-09-07T14:35:24.000Z,44.96
2022-09-07T14:36:24.000Z,44.77
2022-09-07T14:37:24.000Z,43.08
2022-09-07T14:38:24.000Z,42.23
2022-09-07T14:39:24.000Z,41.21
2022-09-07T14:40:24.000Z,39.90
2022-09-07T14:41:24.000Z,38.49
2022-09-07T14:42:24.000Z,37.09
2022-09-07T14:43:24.000Z,36.88
2022-09-07T14:44:24.000Z,36.06
2022-09-07T14:45:24.000Z,36.02
2022-09-07T14:46:24.000Z,34.25
2022-09-07T14:47:24.000Z,34.03
2022-09-07T14:48:24.000Z,33.73
2022-09-07T14:49:24.000Z,33.43
2022-09-07T14:50:24.000Z,33.41
2022-09-07T14:51:24.000Z,33.51
2022-09-07T15:03:57.000Z,33.38
2022-09-07T15:03:57.000Z,32.78
2022-09-07T15:04:57.000Z,32.78
2022-09-07T15:05:57.000Z,32.09
2022-09-07T15:06:57.000Z,31.42
2022-09-07T15:07:57.000Z,32.00
2022-09-07T15:08:57.000Z,32.10
2022-09-07T15:09:57.000Z,32.60
2022-09-07T15:10:57.000Z,32.42
2022-09-07T15:11:57.000Z,33.11
2022-09-07T15:20:14.000Z,33.12
2022-09-07T15:20:14.000Z,33.80
2022-09-07T15:21:14.000Z,33.44
2022-09-07T15:22:14.000Z,33.56
2022-09-07T15:23:14.000Z,34.86
2022-09-07T15:23:14.000Z,34.86
2022-09-07T15:24:14.000Z,35.38
2022-09-07T15:24:14.000Z,35.38
2022-09-07T15:25:14.000Z,35.59
2022-09-07T15:25:14.000Z,35.59
2022-09-07T15:26:14.000Z,36.02
2022-09-07T15:26:14.000Z,36.02
2022-09-07T15:27:14.000Z,36.91
2022-09-07T15:27:14.000Z,36.91
2022-09-07T15:28:14.000Z,37.83
2022-09-07T15:29:14.000Z,38.34
2022-09-07T15:30:14.000Z,39.14
2022-09-07T15:31:14.000Z,38.65
2022-09-07T15:32:14.000Z,39.14
2022-09-07T15:46:31.000Z,37.52
2022-09-07T15:46:31.000Z,36.33
2022-09-07T15:47:31.000Z,37.73
2022-09-07T16:00:04.000Z,39.61
2022-09-07T16:00:04.000Z,40.09
2022-09-07T16:01:04.000Z,40.11
2022-09-07T16:02:04.000Z,39.23
2022-09-07T16:03:04.000Z,39.23
2022-09-07T16:04:04.000Z,38.96
2022-09-07T16:05:04.000Z,40.33
2022-09-07T16:06:04.000Z,39.76
2022-09-07T16:07:04.000Z,40.16
2022-09-07T16:08:04.000Z,40.25
2022-09-07T16:10:20.000Z,41.67
2022-09-07T16:10:20.000Z,40.76
2022-09-07T16:11:20.000Z,41.27
2022-09-07T16:12:20.000Z,42.16
2022-09-07T16:13:20.000Z,42.85
2022-09-07T16:20:38.000Z,43.87
2022-09-07T16:20:38.000Z,43.18
2022-09-07T16:21:38.000Z,43.48
2022-09-07T16:22:38.000Z,44.95
2022-09-07T16:23:38.000Z,43.50
2022-09-07T16:36:11.000Z,45.02
2022-09-07T16:36:11.000Z,45.71
2022-09-07T16:37:11.000Z,45.51
2022-09-07T16:38:11.000Z,44.72
2022-09-07T16:39:11.000Z,44.92
2022-09-07T16:46:27.000Z,45.95
2022-09-07T16:46:27.000Z,45.56
2022-09-07T16:47:27.000Z,46.25
2022-09-07T16:48:27.000Z,46.44
2022-09-07T16:49:27.000Z,46.76
2022-09-07T16:50:27.000Z,46.76
2022-09-07T16:51:27.000Z,46.76